sensor_id;sensor_type;location;lat;lon;timestamp;pressure;altitude;pressure_sealevel;temperature;humidity
32324;BME280;25666;44.350;9.222;2023-04-03T00:01:02;101228.00;;;13.50;100.00
32324;BME280;25666;44.350;9.222;2023-04-03T00:03:28;101217.53;;;13.47;100.00
32324;BME280;25666;44.350;9.222;2023-04-03T00:05:53;101219.13;;;13.48;100.00
32324;BME280;25666;44.350;9.222;2023-04-03T00:08:20;101218.41;;;13.51;100.00
32324;BME280;25666;44.350;9.222;2023-04-03T00:10:45;101215.47;;;13.75;100.00
32324;BME280;25666;44.350;9.222;2023-04-03T00:13:11;101209.22;;;13.66;100.00
32324;BME280;25666;44.350;9.222;2023-04-03T00:15:37;101212.69;;;13.90;100.00
32324;BME280;25666;44.350;9.222;2023-04-03T00:18:03;101210.50;;;13.84;100.00
32324;BME280;25666;44.350;9.222;2023-04-03T00:20:29;101213.31;;;14.00;100.00
32324;BME280;25666;44.350;9.222;2023-04-03T00:22:54;101204.72;;;14.59;87.62
32324;BME280;25666;44.350;9.222;2023-04-03T00:25:20;101207.59;;;14.27;100.00
32324;BME280;25666;44.350;9.222;2023-04-03T00:27:46;101200.09;;;15.05;80.46
32324;BME280;25666;44.350;9.222;2023-04-03T00:30:14;101192.16;;;14.87;93.01
32324;BME280;25666;44.350;9.222;2023-04-03T00:32:41;101195.25;;;14.47;100.00
32324;BME280;25666;44.350;9.222;2023-04-03T00:35:07;101198.66;;;14.57;100.00
32324;BME280;25666;44.350;9.222;2023-04-03T00:37:32;101199.50;;;14.76;100.00
32324;BME280;25666;44.350;9.222;2023-04-03T00:39:58;101191.91;;;14.77;90.17
32324;BME280;25666;44.350;9.222;2023-04-03T00:42:24;101187.97;;;14.97;79.44
32324;BME280;25666;44.350;9.222;2023-04-03T00:47:30;101201.59;;;14.98;83.01
32324;BME280;25666;44.350;9.222;2023-04-03T00:49:58;101197.75;;;14.87;84.90
32324;BME280;25666;44.350;9.222;2023-04-03T00:52:28;101195.16;;;14.98;78.02
32324;BME280;25666;44.350;9.222;2023-04-03T00:54:57;101192.34;;;15.17;74.77
32324;BME280;25666;44.350;9.222;2023-04-03T00:57:26;101188.50;;;15.67;65.63
32324;BME280;25666;44.350;9.222;2023-04-03T00:59:57;101195.19;;;15.59;67.43
32324;BME280;25666;44.350;9.222;2023-04-03T01:02:24;101191.81;;;15.95;62.75
32324;BME280;25666;44.350;9.222;2023-04-03T01:04:50;101187.81;;;15.51;80.78
32324;BME280;25666;44.350;9.222;2023-04-03T01:07:23;101195.28;;;15.43;69.76
32324;BME280;25666;44.350;9.222;2023-04-03T01:09:52;101186.03;;;15.62;68.03
32324;BME280;25666;44.350;9.222;2023-04-03T01:12:23;101189.31;;;15.26;79.79
32324;BME280;25666;44.350;9.222;2023-04-03T01:14:51;101185.00;;;15.09;90.55
32324;BME280;25666;44.350;9.222;2023-04-03T01:25:47;101176.78;;;15.00;78.47
32324;BME280;25666;44.350;9.222;2023-04-03T01:28:26;101171.41;;;15.11;82.29
32324;BME280;25666;44.350;9.222;2023-04-03T01:31:02;101169.84;;;14.94;100.00
32324;BME280;25666;44.350;9.222;2023-04-03T01:33:32;101166.84;;;14.65;100.00
32324;BME280;25666;44.350;9.222;2023-04-03T01:35:57;101170.28;;;14.39;100.00
32324;BME280;25666;44.350;9.222;2023-04-03T01:38:23;101172.72;;;14.25;100.00
32324;BME280;25666;44.350;9.222;2023-04-03T01:40:49;101172.00;;;14.82;85.86
32324;BME280;25666;44.350;9.222;2023-04-03T01:43:14;101163.97;;;15.41;76.87
32324;BME280;25666;44.350;9.222;2023-04-03T01:45:40;101167.66;;;15.45;71.69
32324;BME280;25666;44.350;9.222;2023-04-03T01:48:06;101168.66;;;15.15;92.89
32324;BME280;25666;44.350;9.222;2023-04-03T01:50:31;101165.22;;;15.44;72.01
32324;BME280;25666;44.350;9.222;2023-04-03T01:52:57;101153.94;;;15.40;72.47
32324;BME280;25666;44.350;9.222;2023-04-03T01:55:22;101162.06;;;15.26;80.13
32324;BME280;25666;44.350;9.222;2023-04-03T01:57:48;101164.03;;;15.22;75.40
32324;BME280;25666;44.350;9.222;2023-04-03T02:00:14;101164.84;;;15.03;100.00
32324;BME280;25666;44.350;9.222;2023-04-03T02:02:40;101170.66;;;14.76;100.00
32324;BME280;25666;44.350;9.222;2023-04-03T02:05:06;101169.63;;;14.45;100.00
32324;BME280;25666;44.350;9.222;2023-04-03T02:07:32;101167.13;;;14.40;100.00
32324;BME280;25666;44.350;9.222;2023-04-03T02:09:57;101161.63;;;14.13;100.00
32324;BME280;25666;44.350;9.222;2023-04-03T02:12:23;101160.47;;;13.98;100.00
32324;BME280;25666;44.350;9.222;2023-04-03T02:14:48;101163.59;;;13.77;100.00
32324;BME280;25666;44.350;9.222;2023-04-03T02:17:13;101149.06;;;13.72;100.00
32324;BME280;25666;44.350;9.222;2023-04-03T02:19:40;101156.00;;;13.62;100.00
32324;BME280;25666;44.350;9.222;2023-04-03T02:22:05;101150.94;;;13.68;100.00
32324;BME280;25666;44.350;9.222;2023-04-03T02:24:32;101159.53;;;13.59;100.00
32324;BME280;25666;44.350;9.222;2023-04-03T02:26:58;101149.13;;;13.60;100.00
32324;BME280;25666;44.350;9.222;2023-04-03T02:29:24;101146.41;;;13.63;100.00
32324;BME280;25666;44.350;9.222;2023-04-03T02:31:50;101155.00;;;13.39;100.00
32324;BME280;25666;44.350;9.222;2023-04-03T02:34:16;101151.03;;;13.56;100.00
32324;BME280;25666;44.350;9.222;2023-04-03T02:36:42;101154.09;;;13.51;100.00
32324;BME280;25666;44.350;9.222;2023-04-03T02:39:09;101157.34;;;13.53;100.00
32324;BME280;25666;44.350;9.222;2023-04-03T02:41:35;101159.50;;;13.44;100.00
32324;BME280;25666;44.350;9.222;2023-04-03T02:44:03;101153.81;;;13.40;100.00
32324;BME280;25666;44.350;9.222;2023-04-03T02:46:30;101153.94;;;13.44;100.00
32324;BME280;25666;44.350;9.222;2023-04-03T02:48:56;101154.16;;;13.38;100.00
32324;BME280;25666;44.350;9.222;2023-04-03T02:51:22;101154.63;;;13.25;100.00
32324;BME280;25666;44.350;9.222;2023-04-03T02:53:52;101144.13;;;13.22;100.00
32324;BME280;25666;44.350;9.222;2023-04-03T02:56:21;101146.38;;;13.16;100.00
32324;BME280;25666;44.350;9.222;2023-04-03T02:58:47;101160.25;;;13.13;100.00
32324;BME280;25666;44.350;9.222;2023-04-03T03:01:13;101155.47;;;13.13;100.00
32324;BME280;25666;44.350;9.222;2023-04-03T03:03:39;101161.44;;;13.12;100.00
32324;BME280;25666;44.350;9.222;2023-04-03T03:06:10;101154.88;;;12.92;100.00
32324;BME280;25666;44.350;9.222;2023-04-03T03:08:37;101161.44;;;12.84;100.00
32324;BME280;25666;44.350;9.222;2023-04-03T03:11:03;101151.41;;;12.83;100.00
32324;BME280;25666;44.350;9.222;2023-04-03T03:13:29;101156.31;;;12.46;100.00
32324;BME280;25666;44.350;9.222;2023-04-03T03:15:56;101153.00;;;12.56;100.00
32324;BME280;25666;44.350;9.222;2023-04-03T03:18:21;101156.56;;;12.41;100.00
32324;BME280;25666;44.350;9.222;2023-04-03T03:20:56;101154.00;;;12.36;100.00
32324;BME280;25666;44.350;9.222;2023-04-03T03:23:23;101152.06;;;12.24;100.00
32324;BME280;25666;44.350;9.222;2023-04-03T03:25:55;101149.03;;;12.29;100.00
32324;BME280;25666;44.350;9.222;2023-04-03T03:28:21;101144.13;;;12.39;100.00
32324;BME280;25666;44.350;9.222;2023-04-03T03:30:46;101156.47;;;12.25;100.00
32324;BME280;25666;44.350;9.222;2023-04-03T03:33:13;101153.94;;;12.20;100.00
32324;BME280;25666;44.350;9.222;2023-04-03T03:35:38;101160.53;;;12.28;100.00
32324;BME280;25666;44.350;9.222;2023-04-03T03:38:04;101161.22;;;12.25;100.00
32324;BME280;25666;44.350;9.222;2023-04-03T03:40:31;101155.09;;;12.19;100.00
32324;BME280;25666;44.350;9.222;2023-04-03T03:42:57;101154.59;;;12.29;100.00
32324;BME280;25666;44.350;9.222;2023-04-03T03:45:22;101159.72;;;12.15;100.00
32324;BME280;25666;44.350;9.222;2023-04-03T03:47:48;101157.16;;;12.22;100.00
32324;BME280;25666;44.350;9.222;2023-04-03T03:50:14;101163.22;;;12.24;100.00
32324;BME280;25666;44.350;9.222;2023-04-03T03:52:40;101156.75;;;12.08;100.00
32324;BME280;25666;44.350;9.222;2023-04-03T03:55:06;101164.53;;;11.91;100.00
32324;BME280;25666;44.350;9.222;2023-04-03T03:57:34;101163.34;;;12.04;100.00
32324;BME280;25666;44.350;9.222;2023-04-03T04:00:00;101167.34;;;12.03;100.00
32324;BME280;25666;44.350;9.222;2023-04-03T04:02:26;101163.47;;;12.07;100.00
32324;BME280;25666;44.350;9.222;2023-04-03T04:04:52;101162.09;;;12.01;100.00
32324;BME280;25666;44.350;9.222;2023-04-03T04:07:18;101163.94;;;11.73;100.00
32324;BME280;25666;44.350;9.222;2023-04-03T04:09:44;101164.53;;;11.78;100.00
32324;BME280;25666;44.350;9.222;2023-04-03T04:12:10;101164.53;;;11.78;100.00
32324;BME280;25666;44.350;9.222;2023-04-03T04:14:36;101173.47;;;11.84;100.00
32324;BME280;25666;44.350;9.222;2023-04-03T04:17:03;101163.25;;;11.88;100.00
32324;BME280;25666;44.350;9.222;2023-04-03T04:19:29;101161.72;;;11.91;100.00
32324;BME280;25666;44.350;9.222;2023-04-03T04:21:54;101168.50;;;11.90;100.00
32324;BME280;25666;44.350;9.222;2023-04-03T04:24:20;101165.91;;;11.97;100.00
32324;BME280;25666;44.350;9.222;2023-04-03T04:26:49;101163.03;;;12.05;100.00
32324;BME280;25666;44.350;9.222;2023-04-03T04:29:16;101166.38;;;12.11;100.00
32324;BME280;25666;44.350;9.222;2023-04-03T04:31:45;101163.72;;;12.02;100.00
32324;BME280;25666;44.350;9.222;2023-04-03T04:34:10;101162.91;;;11.90;100.00
32324;BME280;25666;44.350;9.222;2023-04-03T04:36:38;101155.38;;;11.90;100.00
32324;BME280;25666;44.350;9.222;2023-04-03T04:39:03;101162.91;;;11.90;100.00
32324;BME280;25666;44.350;9.222;2023-04-03T04:41:29;101160.69;;;11.95;100.00
32324;BME280;25666;44.350;9.222;2023-04-03T04:43:55;101147.69;;;11.87;100.00
32324;BME280;25666;44.350;9.222;2023-04-03T04:46:22;101150.56;;;11.91;100.00
32324;BME280;25666;44.350;9.222;2023-04-03T04:48:52;101152.44;;;11.87;100.00
32324;BME280;25666;44.350;9.222;2023-04-03T04:51:19;101154.31;;;11.82;100.00
32324;BME280;25666;44.350;9.222;2023-04-03T04:53:45;101148.59;;;11.79;100.00
32324;BME280;25666;44.350;9.222;2023-04-03T04:56:13;101157.91;;;11.95;100.00
32324;BME280;25666;44.350;9.222;2023-04-03T04:58:39;101148.84;;;11.98;100.00
32324;BME280;25666;44.350;9.222;2023-04-03T05:01:08;101150.25;;;11.92;100.00
32324;BME280;25666;44.350;9.222;2023-04-03T05:03:37;101148.97;;;11.90;100.00
32324;BME280;25666;44.350;9.222;2023-04-03T05:06:04;101144.78;;;11.96;100.00
32324;BME280;25666;44.350;9.222;2023-04-03T05:08:32;101145.34;;;11.89;100.00
32324;BME280;25666;44.350;9.222;2023-04-03T05:10:58;101144.66;;;11.92;100.00
32324;BME280;25666;44.350;9.222;2023-04-03T05:13:25;101146.28;;;11.93;100.00
32324;BME280;25666;44.350;9.222;2023-04-03T05:15:51;101152.19;;;12.04;100.00
32324;BME280;25666;44.350;9.222;2023-04-03T05:18:16;101150.47;;;12.11;100.00
32324;BME280;25666;44.350;9.222;2023-04-03T05:20:43;101151.03;;;12.17;100.00
32324;BME280;25666;44.350;9.222;2023-04-03T05:23:10;101153.00;;;12.16;100.00
32324;BME280;25666;44.350;9.222;2023-04-03T05:25:37;101152.84;;;12.25;100.00
32324;BME280;25666;44.350;9.222;2023-04-03T05:28:04;101156.69;;;12.32;100.00
32324;BME280;25666;44.350;9.222;2023-04-03T05:30:30;101149.97;;;12.21;100.00
32324;BME280;25666;44.350;9.222;2023-04-03T05:32:55;101154.84;;;12.24;100.00
32324;BME280;25666;44.350;9.222;2023-04-03T05:35:31;101161.22;;;12.25;100.00
32324;BME280;25666;44.350;9.222;2023-04-03T05:37:59;101160.13;;;12.02;100.00
32324;BME280;25666;44.350;9.222;2023-04-03T05:40:25;101168.22;;;12.19;100.00
32324;BME280;25666;44.350;9.222;2023-04-03T05:42:53;101157.41;;;12.29;100.00
32324;BME280;25666;44.350;9.222;2023-04-03T05:45:21;101154.78;;;12.49;100.00
32324;BME280;25666;44.350;9.222;2023-04-03T05:47:47;101161.31;;;12.41;100.00
32324;BME280;25666;44.350;9.222;2023-04-03T05:50:14;101162.47;;;13.07;100.00
32324;BME280;25666;44.350;9.222;2023-04-03T05:52:43;101153.94;;;15.40;100.00
32324;BME280;25666;44.350;9.222;2023-04-03T05:55:10;101155.56;;;16.99;100.00
32324;BME280;25666;44.350;9.222;2023-04-03T05:57:36;101162.75;;;17.30;100.00
32324;BME280;25666;44.350;9.222;2023-04-03T06:00:07;101155.66;;;17.43;100.00
32324;BME280;25666;44.350;9.222;2023-04-03T06:02:39;101146.00;;;20.52;82.49
32324;BME280;25666;44.350;9.222;2023-04-03T06:05:06;101150.97;;;21.28;79.13
32324;BME280;25666;44.350;9.222;2023-04-03T06:07:34;101146.25;;;22.55;62.34
32324;BME280;25666;44.350;9.222;2023-04-03T06:09:59;101156.41;;;23.20;54.68
32324;BME280;25666;44.350;9.222;2023-04-03T06:12:25;101144.97;;;22.97;53.20
32324;BME280;25666;44.350;9.222;2023-04-03T06:14:51;101137.59;;;24.72;47.09
32324;BME280;25666;44.350;9.222;2023-04-03T06:17:17;101141.56;;;24.59;46.55
32324;BME280;25666;44.350;9.222;2023-04-03T06:19:44;101142.13;;;25.45;45.15
32324;BME280;25666;44.350;9.222;2023-04-03T06:22:09;101141.91;;;26.04;41.50
32324;BME280;25666;44.350;9.222;2023-04-03T06:24:37;101141.09;;;26.03;40.33
32324;BME280;25666;44.350;9.222;2023-04-03T06:27:02;101146.44;;;25.17;40.87
32324;BME280;25666;44.350;9.222;2023-04-03T06:29:28;101144.38;;;20.58;52.76
32324;BME280;25666;44.350;9.222;2023-04-03T06:31:53;101146.69;;;18.90;72.84
32324;BME280;25666;44.350;9.222;2023-04-03T06:34:19;101155.03;;;18.04;87.88
32324;BME280;25666;44.350;9.222;2023-04-03T06:36:45;101156.22;;;17.19;100.00
32324;BME280;25666;44.350;9.222;2023-04-03T06:39:19;101151.91;;;16.62;100.00
32324;BME280;25666;44.350;9.222;2023-04-03T06:41:49;101152.22;;;18.07;100.00
32324;BME280;25666;44.350;9.222;2023-04-03T06:44:16;101160.25;;;21.87;69.40
32324;BME280;25666;44.350;9.222;2023-04-03T06:46:43;101155.34;;;23.10;59.43
32324;BME280;25666;44.350;9.222;2023-04-03T06:49:10;101154.84;;;24.85;49.59
32324;BME280;25666;44.350;9.222;2023-04-03T06:51:36;101148.00;;;26.06;45.69
32324;BME280;25666;44.350;9.222;2023-04-03T06:54:04;101145.75;;;26.30;45.05
32324;BME280;25666;44.350;9.222;2023-04-03T06:56:30;101140.31;;;27.59;41.22
32324;BME280;25666;44.350;9.222;2023-04-03T06:58:56;101143.28;;;27.69;38.21
32324;BME280;25666;44.350;9.222;2023-04-03T07:01:27;101140.31;;;25.54;41.96
32324;BME280;25666;44.350;9.222;2023-04-03T07:03:53;101138.78;;;24.55;43.87
32324;BME280;25666;44.350;9.222;2023-04-03T07:06:19;101141.53;;;23.66;48.18
32324;BME280;25666;44.350;9.222;2023-04-03T07:08:45;101140.13;;;22.22;55.40
32324;BME280;25666;44.350;9.222;2023-04-03T07:11:12;101144.84;;;20.36;70.95
32324;BME280;25666;44.350;9.222;2023-04-03T07:13:37;101144.31;;;19.06;86.29
32324;BME280;25666;44.350;9.222;2023-04-03T07:16:04;101145.94;;;18.28;100.00
32324;BME280;25666;44.350;9.222;2023-04-03T07:18:31;101144.09;;;17.95;100.00
32324;BME280;25666;44.350;9.222;2023-04-03T07:20:57;101141.69;;;17.53;100.00
32324;BME280;25666;44.350;9.222;2023-04-03T07:23:23;101144.75;;;17.78;100.00
32324;BME280;25666;44.350;9.222;2023-04-03T07:25:50;101144.03;;;17.44;100.00
32324;BME280;25666;44.350;9.222;2023-04-03T07:28:17;101150.19;;;17.20;100.00
32324;BME280;25666;44.350;9.222;2023-04-03T07:30:44;101143.66;;;16.76;100.00
32324;BME280;25666;44.350;9.222;2023-04-03T07:33:10;101143.97;;;16.71;100.00
32324;BME280;25666;44.350;9.222;2023-04-03T07:35:37;101144.72;;;16.38;100.00
32324;BME280;25666;44.350;9.222;2023-04-03T07:38:02;101146.78;;;16.15;100.00
32324;BME280;25666;44.350;9.222;2023-04-03T07:40:28;101143.63;;;16.16;100.00
32324;BME280;25666;44.350;9.222;2023-04-03T07:42:53;101143.19;;;15.65;100.00
32324;BME280;25666;44.350;9.222;2023-04-03T07:45:20;101138.09;;;15.97;100.00
32324;BME280;25666;44.350;9.222;2023-04-03T07:47:45;101147.22;;;15.90;100.00
32324;BME280;25666;44.350;9.222;2023-04-03T07:50:11;101140.13;;;15.74;100.00
32324;BME280;25666;44.350;9.222;2023-04-03T07:52:36;101141.28;;;15.73;100.00
32324;BME280;25666;44.350;9.222;2023-04-03T07:55:02;101146.13;;;15.72;100.00
32324;BME280;25666;44.350;9.222;2023-04-03T07:57:27;101138.59;;;16.02;100.00
32324;BME280;25666;44.350;9.222;2023-04-03T07:59:53;101128.19;;;16.33;100.00
32324;BME280;25666;44.350;9.222;2023-04-03T08:02:19;101135.38;;;16.30;100.00
32324;BME280;25666;44.350;9.222;2023-04-03T08:04:45;101134.69;;;16.37;100.00
32324;BME280;25666;44.350;9.222;2023-04-03T08:07:10;101135.16;;;16.42;100.00
32324;BME280;25666;44.350;9.222;2023-04-03T08:09:36;101133.41;;;16.60;100.00
32324;BME280;25666;44.350;9.222;2023-04-03T08:12:01;101135.44;;;16.60;100.00
32324;BME280;25666;44.350;9.222;2023-04-03T08:14:27;101134.31;;;16.68;100.00
32324;BME280;25666;44.350;9.222;2023-04-03T08:16:52;101132.78;;;16.74;100.00
32324;BME280;25666;44.350;9.222;2023-04-03T08:19:17;101137.78;;;16.58;100.00
32324;BME280;25666;44.350;9.222;2023-04-03T08:21:44;101132.81;;;16.48;100.00
32324;BME280;25666;44.350;9.222;2023-04-03T08:24:09;101132.03;;;16.51;100.00
32324;BME280;25666;44.350;9.222;2023-04-03T08:26:35;101132.50;;;16.53;100.00
32324;BME280;25666;44.350;9.222;2023-04-03T08:29:01;101135.75;;;16.55;100.00
32324;BME280;25666;44.350;9.222;2023-04-03T08:31:28;101133.63;;;16.48;100.00
32324;BME280;25666;44.350;9.222;2023-04-03T08:33:54;101129.63;;;16.49;100.00
32324;BME280;25666;44.350;9.222;2023-04-03T08:36:22;101131.25;;;16.50;100.00
32324;BME280;25666;44.350;9.222;2023-04-03T08:38:49;101136.91;;;16.54;100.00
32324;BME280;25666;44.350;9.222;2023-04-03T08:49:49;101119.41;;;16.64;100.00
32324;BME280;25666;44.350;9.222;2023-04-03T08:52:19;101115.00;;;16.67;100.00
32324;BME280;25666;44.350;9.222;2023-04-03T08:54:57;101125.78;;;16.61;100.00
32324;BME280;25666;44.350;9.222;2023-04-03T08:57:30;101117.34;;;16.61;100.00
32324;BME280;25666;44.350;9.222;2023-04-03T09:00:06;101117.81;;;16.63;100.00
32324;BME280;25666;44.350;9.222;2023-04-03T09:02:37;101108.94;;;16.61;100.00
32324;BME280;25666;44.350;9.222;2023-04-03T09:08:00;101108.72;;;16.47;100.00
32324;BME280;25666;44.350;9.222;2023-04-03T09:10:30;101111.13;;;16.48;100.00
32324;BME280;25666;44.350;9.222;2023-04-03T09:13:17;101106.22;;;16.42;100.00
32324;BME280;25666;44.350;9.222;2023-04-03T09:15:46;101098.63;;;16.42;100.00
32324;BME280;25666;44.350;9.222;2023-04-03T09:18:16;101088.78;;;16.55;100.00
32324;BME280;25666;44.350;9.222;2023-04-03T09:26:10;101093.16;;;16.53;100.00
32324;BME280;25666;44.350;9.222;2023-04-03T09:28:40;101094.81;;;16.57;100.00
32324;BME280;25666;44.350;9.222;2023-04-03T09:31:43;101091.28;;;16.64;100.00
32324;BME280;25666;44.350;9.222;2023-04-03T09:34:29;101092.47;;;16.59;100.00
32324;BME280;25666;44.350;9.222;2023-04-03T09:37:00;101089.00;;;16.73;100.00
32324;BME280;25666;44.350;9.222;2023-04-03T09:39:32;101091.75;;;16.70;100.00
32324;BME280;25666;44.350;9.222;2023-04-03T09:42:06;101088.56;;;16.71;100.00
32324;BME280;25666;44.350;9.222;2023-04-03T09:44:38;101083.38;;;16.73;100.00
32324;BME280;25666;44.350;9.222;2023-04-03T09:47:29;101081.06;;;16.82;100.00
32324;BME280;25666;44.350;9.222;2023-04-03T09:52:37;101076.84;;;16.99;100.00
32324;BME280;25666;44.350;9.222;2023-04-03T09:55:08;101079.28;;;17.00;100.00
32324;BME280;25666;44.350;9.222;2023-04-03T09:57:38;101077.25;;;16.97;100.00
32324;BME280;25666;44.350;9.222;2023-04-03T10:00:06;101076.56;;;17.11;100.00
32324;BME280;25666;44.350;9.222;2023-04-03T10:02:44;101081.13;;;17.23;100.00
32324;BME280;25666;44.350;9.222;2023-04-03T10:05:34;101071.91;;;17.29;100.00
32324;BME280;25666;44.350;9.222;2023-04-03T10:10:40;101056.31;;;17.39;100.00
32324;BME280;25666;44.350;9.222;2023-04-03T10:13:16;101068.31;;;17.29;100.00
32324;BME280;25666;44.350;9.222;2023-04-03T10:15:50;101058.91;;;17.14;100.00
32324;BME280;25666;44.350;9.222;2023-04-03T10:18:46;101057.97;;;16.99;100.00
32324;BME280;25666;44.350;9.222;2023-04-03T10:21:35;101053.03;;;17.30;100.00
32324;BME280;25666;44.350;9.222;2023-04-03T10:24:17;101049.59;;;17.50;100.00
32324;BME280;25666;44.350;9.222;2023-04-03T10:27:04;101044.00;;;17.54;100.00
32324;BME280;25666;44.350;9.222;2023-04-03T10:29:40;101046.91;;;17.21;100.00
32324;BME280;25666;44.350;9.222;2023-04-03T10:38:16;101037.06;;;17.41;100.00
32324;BME280;25666;44.350;9.222;2023-04-03T10:40:55;101028.78;;;17.58;100.00
32324;BME280;25666;44.350;9.222;2023-04-03T10:43:50;101021.56;;;17.64;100.00
32324;BME280;25666;44.350;9.222;2023-04-03T10:46:40;101011.94;;;17.65;100.00
32324;BME280;25666;44.350;9.222;2023-04-03T10:51:47;101017.47;;;17.55;100.00
32324;BME280;25666;44.350;9.222;2023-04-03T10:54:26;101012.59;;;17.52;100.00
32324;BME280;25666;44.350;9.222;2023-04-03T10:57:01;101009.06;;;17.58;100.00
32324;BME280;25666;44.350;9.222;2023-04-03T11:02:07;101007.13;;;17.66;100.00
32324;BME280;25666;44.350;9.222;2023-04-03T11:04:40;101004.34;;;17.73;100.00
32324;BME280;25666;44.350;9.222;2023-04-03T11:07:16;100994.34;;;17.79;100.00
32324;BME280;25666;44.350;9.222;2023-04-03T11:09:46;100982.72;;;17.88;100.00
32324;BME280;25666;44.350;9.222;2023-04-03T11:12:18;100986.81;;;18.04;100.00
32324;BME280;25666;44.350;9.222;2023-04-03T11:14:47;100985.25;;;18.17;100.00
32324;BME280;25666;44.350;9.222;2023-04-03T11:20:08;100978.03;;;18.16;100.00
32324;BME280;25666;44.350;9.222;2023-04-03T11:25:53;100972.84;;;18.33;100.00
32324;BME280;25666;44.350;9.222;2023-04-03T11:28:21;100969.56;;;18.20;100.00
32324;BME280;25666;44.350;9.222;2023-04-03T11:31:33;100959.50;;;18.15;100.00
32324;BME280;25666;44.350;9.222;2023-04-03T11:34:04;100955.81;;;18.01;100.00
32324;BME280;25666;44.350;9.222;2023-04-03T11:36:49;100954.59;;;17.95;100.00
32324;BME280;25666;44.350;9.222;2023-04-03T11:39:31;100956.94;;;17.82;100.00
32324;BME280;25666;44.350;9.222;2023-04-03T11:42:40;100951.06;;;18.15;100.00
32324;BME280;25666;44.350;9.222;2023-04-03T11:47:53;100947.91;;;18.35;100.00
32324;BME280;25666;44.350;9.222;2023-04-03T12:05:53;100941.34;;;18.06;100.00
32324;BME280;25666;44.350;9.222;2023-04-03T12:08:29;100928.13;;;18.13;100.00
32324;BME280;25666;44.350;9.222;2023-04-03T12:16:19;100929.25;;;18.02;100.00
32324;BME280;25666;44.350;9.222;2023-04-03T12:18:56;100922.81;;;17.98;100.00
32324;BME280;25666;44.350;9.222;2023-04-03T12:21:22;100914.34;;;17.94;100.00
32324;BME280;25666;44.350;9.222;2023-04-03T12:26:28;100914.25;;;17.77;100.00
32324;BME280;25666;44.350;9.222;2023-04-03T12:28:56;100919.13;;;17.83;100.00
32324;BME280;25666;44.350;9.222;2023-04-03T12:31:37;100920.34;;;17.89;100.00
32324;BME280;25666;44.350;9.222;2023-04-03T12:37:27;100926.81;;;17.93;100.00
32324;BME280;25666;44.350;9.222;2023-04-03T12:45:47;100917.66;;;18.21;100.00
32324;BME280;25666;44.350;9.222;2023-04-03T12:48:18;100914.06;;;18.28;100.00
32324;BME280;25666;44.350;9.222;2023-04-03T12:50:48;100919.31;;;18.36;100.00
32324;BME280;25666;44.350;9.222;2023-04-03T12:53:33;100913.69;;;18.43;100.00
32324;BME280;25666;44.350;9.222;2023-04-03T12:56:23;100908.84;;;18.40;100.00
32324;BME280;25666;44.350;9.222;2023-04-03T12:58:50;100907.22;;;18.36;100.00
32324;BME280;25666;44.350;9.222;2023-04-03T13:01:18;100908.00;;;18.18;100.00
32324;BME280;25666;44.350;9.222;2023-04-03T13:03:49;100898.72;;;18.18;100.00
32324;BME280;25666;44.350;9.222;2023-04-03T13:06:27;100910.00;;;18.18;100.00
32324;BME280;25666;44.350;9.222;2023-04-03T13:08:59;100908.03;;;18.26;100.00
32324;BME280;25666;44.350;9.222;2023-04-03T13:14:24;100902.41;;;18.40;100.00
32324;BME280;25666;44.350;9.222;2023-04-03T13:17:15;100906.84;;;18.44;100.00
32324;BME280;25666;44.350;9.222;2023-04-03T13:19:43;100905.28;;;18.50;100.00
32324;BME280;25666;44.350;9.222;2023-04-03T13:22:47;100901.25;;;18.55;100.00
32324;BME280;25666;44.350;9.222;2023-04-03T13:25:13;100891.22;;;18.75;100.00
32324;BME280;25666;44.350;9.222;2023-04-03T13:27:39;100898.44;;;18.83;100.00
32324;BME280;25666;44.350;9.222;2023-04-03T13:30:32;100890.38;;;18.64;100.00
32324;BME280;25666;44.350;9.222;2023-04-03T13:33:01;100883.53;;;18.65;92.57
32324;BME280;25666;44.350;9.222;2023-04-03T13:35:56;100880.72;;;18.54;80.10
32324;BME280;25666;44.350;9.222;2023-04-03T13:38:26;100875.06;;;18.54;84.63
32324;BME280;25666;44.350;9.222;2023-04-03T13:40:57;100886.72;;;18.46;70.90
32324;BME280;25666;44.350;9.222;2023-04-03T13:43:32;100875.88;;;18.55;69.10
32324;BME280;25666;44.350;9.222;2023-04-03T13:46:03;100877.88;;;18.47;67.13
32324;BME280;25666;44.350;9.222;2023-04-03T13:48:40;100867.03;;;18.53;71.07
32324;BME280;25666;44.350;9.222;2023-04-03T13:51:20;100865.38;;;18.48;65.94
32324;BME280;25666;44.350;9.222;2023-04-03T13:53:47;100863.78;;;18.44;67.64
32324;BME280;25666;44.350;9.222;2023-04-03T13:56:40;100866.19;;;18.49;66.40
32324;BME280;25666;44.350;9.222;2023-04-03T14:01:54;100852.16;;;18.70;66.59
32324;BME280;25666;44.350;9.222;2023-04-03T14:04:43;100858.97;;;18.80;100.00
32324;BME280;25666;44.350;9.222;2023-04-03T14:07:14;100850.91;;;18.67;83.60
32324;BME280;25666;44.350;9.222;2023-04-03T14:09:40;100849.72;;;18.72;68.33
32324;BME280;25666;44.350;9.222;2023-04-03T14:12:08;100842.88;;;18.73;68.33
32324;BME280;25666;44.350;9.222;2023-04-03T14:14:37;100840.03;;;18.55;62.69
32324;BME280;25666;44.350;9.222;2023-04-03T14:17:19;100830.78;;;18.58;61.00
32324;BME280;25666;44.350;9.222;2023-04-03T14:19:47;100828.38;;;18.50;62.25
32324;BME280;25666;44.350;9.222;2023-04-03T14:24:44;100833.19;;;18.53;62.98
32324;BME280;25666;44.350;9.222;2023-04-03T14:27:19;100825.13;;;18.58;77.79
32324;BME280;25666;44.350;9.222;2023-04-03T14:29:45;100817.06;;;18.67;100.00